sensor_id;sensor_type;location;lat;lon;timestamp;pressure;altitude;pressure_sealevel;temperature;humidity
5679;BME280;2862;52.560;13.566;2023-09-19T00:06:02;99758.28;;;18.81;98.51
5679;BME280;2862;52.560;13.566;2023-09-19T00:16:10;99760.16;;;18.81;97.41
5679;BME280;2862;52.560;13.566;2023-09-19T00:26:13;99747.56;;;18.67;97.98
5679;BME280;2862;52.560;13.566;2023-09-19T00:36:22;99741.16;;;18.74;96.76
5679;BME280;2862;52.560;13.566;2023-09-19T00:46:25;99752.38;;;18.65;98.05
5679;BME280;2862;52.560;13.566;2023-09-19T00:56:31;99743.78;;;18.48;99.07
5679;BME280;2862;52.560;13.566;2023-09-19T01:06:34;99748.28;;;18.34;99.77
5679;BME280;2862;52.560;13.566;2023-09-19T01:16:43;99742.28;;;18.39;99.20
5679;BME280;2862;52.560;13.566;2023-09-19T01:27:12;99748.06;;;18.29;99.67
5679;BME280;2862;52.560;13.566;2023-09-19T01:37:21;99758.81;;;18.16;100.00
5679;BME280;2862;52.560;13.566;2023-09-19T01:47:32;99751.72;;;18.08;100.00
5679;BME280;2862;52.560;13.566;2023-09-19T01:57:49;99753.78;;;18.06;100.00
5679;BME280;2862;52.560;13.566;2023-09-19T02:07:55;99748.84;;;18.16;99.40
5679;BME280;2862;52.560;13.566;2023-09-19T02:18:01;99766.34;;;18.20;98.62
5679;BME280;2862;52.560;13.566;2023-09-19T02:28:05;99774.59;;;18.05;99.62
5679;BME280;2862;52.560;13.566;2023-09-19T02:38:10;99779.81;;;18.07;99.31
5679;BME280;2862;52.560;13.566;2023-09-19T02:48:13;99788.09;;;18.05;99.37
5679;BME280;2862;52.560;13.566;2023-09-19T02:58:18;99802.44;;;17.99;99.77
5679;BME280;2862;52.560;13.566;2023-09-19T03:08:21;99798.41;;;17.89;100.00
5679;BME280;2862;52.560;13.566;2023-09-19T03:18:26;99814.47;;;17.90;99.91
5679;BME280;2862;52.560;13.566;2023-09-19T03:28:29;99804.47;;;17.91;99.81
5679;BME280;2862;52.560;13.566;2023-09-19T03:38:34;99812.59;;;17.91;96.66
5679;BME280;2862;52.560;13.566;2023-09-19T03:48:37;99815.97;;;17.99;92.19
5679;BME280;2862;52.560;13.566;2023-09-19T03:58:42;99835.38;;;18.10;89.07
5679;BME280;2862;52.560;13.566;2023-09-19T04:08:45;99836.63;;;18.07;86.98
5679;BME280;2862;52.560;13.566;2023-09-19T04:18:50;99843.28;;;18.11;85.84
5679;BME280;2862;52.560;13.566;2023-09-19T04:28:53;99844.09;;;18.05;84.78
5679;BME280;2862;52.560;13.566;2023-09-19T04:38:59;99860.69;;;17.95;84.05
5679;BME280;2862;52.560;13.566;2023-09-19T04:49:03;99869.38;;;17.91;83.26
5679;BME280;2862;52.560;13.566;2023-09-19T04:59:08;99888.31;;;17.91;82.19
5679;BME280;2862;52.560;13.566;2023-09-19T05:09:12;99900.72;;;18.07;80.81
5679;BME280;2862;52.560;13.566;2023-09-19T05:19:16;99911.59;;;18.13;80.26
5679;BME280;2862;52.560;13.566;2023-09-19T05:29:20;99927.91;;;18.26;79.54
5679;BME280;2862;52.560;13.566;2023-09-19T05:39:24;99934.25;;;18.40;78.30
5679;BME280;2862;52.560;13.566;2023-09-19T05:49:27;99946.81;;;18.76;75.82
5679;BME280;2862;52.560;13.566;2023-09-19T05:59:31;99966.88;;;19.36;72.79
5679;BME280;2862;52.560;13.566;2023-09-19T06:09:35;99979.78;;;20.61;67.01
5679;BME280;2862;52.560;13.566;2023-09-19T06:19:39;99999.72;;;21.13;63.52
5679;BME280;2862;52.560;13.566;2023-09-19T06:29:43;100002.81;;;22.07;59.38
5679;BME280;2862;52.560;13.566;2023-09-19T06:39:47;100009.09;;;22.82;56.36
5679;BME280;2862;52.560;13.566;2023-09-19T06:49:51;100020.59;;;23.94;52.26
5679;BME280;2862;52.560;13.566;2023-09-19T06:59:56;100035.13;;;23.76;52.08
5679;BME280;2862;52.560;13.566;2023-09-19T07:09:59;100035.31;;;23.08;54.34
5679;BME280;2862;52.560;13.566;2023-09-19T07:20:04;100030.63;;;25.12;48.50
5679;BME280;2862;52.560;13.566;2023-09-19T07:30:10;100039.41;;;24.79;48.43
5679;BME280;2862;52.560;13.566;2023-09-19T07:40:14;100055.44;;;22.89;52.83
5679;BME280;2862;52.560;13.566;2023-09-19T07:50:18;100071.25;;;21.79;57.02
5679;BME280;2862;52.560;13.566;2023-09-19T08:00:22;100096.69;;;22.36;54.16
5679;BME280;2862;52.560;13.566;2023-09-19T08:10:25;100105.94;;;22.91;51.34
5679;BME280;2862;52.560;13.566;2023-09-19T08:20:30;100093.25;;;22.22;49.87
5679;BME280;2862;52.560;13.566;2023-09-19T08:30:34;100101.19;;;22.23;50.67
5679;BME280;2862;52.560;13.566;2023-09-19T08:40:40;100115.44;;;21.67;52.51
5679;BME280;2862;52.560;13.566;2023-09-19T08:50:49;100101.31;;;21.90;50.87
5679;BME280;2862;52.560;13.566;2023-09-19T09:00:56;100118.50;;;21.97;51.71
5679;BME280;2862;52.560;13.566;2023-09-19T09:11:03;100135.88;;;22.98;49.08
5679;BME280;2862;52.560;13.566;2023-09-19T09:21:11;100146.16;;;23.21;48.07
5679;BME280;2862;52.560;13.566;2023-09-19T09:31:24;100151.72;;;22.51;48.10
5679;BME280;2862;52.560;13.566;2023-09-19T09:41:36;100147.06;;;22.90;46.68
5679;BME280;2862;52.560;13.566;2023-09-19T09:51:43;100142.50;;;23.09;45.68
5679;BME280;2862;52.560;13.566;2023-09-19T10:01:50;100160.63;;;22.96;44.88
5679;BME280;2862;52.560;13.566;2023-09-19T10:12:03;100148.91;;;22.96;43.11
5679;BME280;2862;52.560;13.566;2023-09-19T10:22:11;100159.97;;;23.01;42.36
5679;BME280;2862;52.560;13.566;2023-09-19T10:32:16;100152.81;;;23.07;41.25
5679;BME280;2862;52.560;13.566;2023-09-19T10:42:23;100155.31;;;23.26;40.69
5679;BME280;2862;52.560;13.566;2023-09-19T10:52:30;100144.78;;;22.55;41.05
5679;BME280;2862;52.560;13.566;2023-09-19T11:02:37;100166.00;;;22.78;40.08
5679;BME280;2862;52.560;13.566;2023-09-19T11:12:50;100150.97;;;22.69;38.97
5679;BME280;2862;52.560;13.566;2023-09-19T11:23:23;100168.50;;;23.11;38.55
5679;BME280;2862;52.560;13.566;2023-09-19T11:33:29;100160.38;;;22.73;39.17
5679;BME280;2862;52.560;13.566;2023-09-19T11:43:36;100174.81;;;23.05;38.92
5679;BME280;2862;52.560;13.566;2023-09-19T11:53:42;100174.56;;;23.13;39.25
5679;BME280;2862;52.560;13.566;2023-09-19T12:03:52;100182.41;;;23.03;38.55
5679;BME280;2862;52.560;13.566;2023-09-19T12:13:56;100176.31;;;22.69;38.89
5679;BME280;2862;52.560;13.566;2023-09-19T12:24:07;100182.28;;;22.60;39.19
5679;BME280;2862;52.560;13.566;2023-09-19T12:34:16;100180.06;;;22.75;37.99
5679;BME280;2862;52.560;13.566;2023-09-19T12:44:23;100181.41;;;22.59;37.99
5679;BME280;2862;52.560;13.566;2023-09-19T12:54:37;100176.72;;;22.41;36.33
5679;BME280;2862;52.560;13.566;2023-09-19T13:04:52;100177.72;;;22.47;36.41
5679;BME280;2862;52.560;13.566;2023-09-19T13:15:07;100184.50;;;22.38;37.03
5679;BME280;2862;52.560;13.566;2023-09-19T13:25:15;100182.75;;;22.50;38.19
5679;BME280;2862;52.560;13.566;2023-09-19T13:35:19;100159.44;;;22.22;37.94
5679;BME280;2862;52.560;13.566;2023-09-19T13:45:24;100171.16;;;22.23;38.92
5679;BME280;2862;52.560;13.566;2023-09-19T13:55:32;100185.03;;;22.08;38.45
5679;BME280;2862;52.560;13.566;2023-09-19T14:05:36;100174.63;;;21.92;39.16
5679;BME280;2862;52.560;13.566;2023-09-19T14:15:39;100172.16;;;21.77;39.12
5679;BME280;2862;52.560;13.566;2023-09-19T14:25:44;100165.38;;;21.99;39.30
5679;BME280;2862;52.560;13.566;2023-09-19T14:35:47;100161.19;;;22.10;39.38
5679;BME280;2862;52.560;13.566;2023-09-19T14:45:51;100155.81;;;21.84;39.27
5679;BME280;2862;52.560;13.566;2023-09-19T14:55:54;100149.25;;;21.40;40.47
5679;BME280;2862;52.560;13.566;2023-09-19T15:06:03;100148.19;;;21.41;40.44
5679;BME280;2862;52.560;13.566;2023-09-19T15:16:07;100149.63;;;21.50;40.16
5679;BME280;2862;52.560;13.566;2023-09-19T15:26:14;100144.44;;;21.42;40.22
5679;BME280;2862;52.560;13.566;2023-09-19T15:36:19;100131.88;;;21.28;40.74
5679;BME280;2862;52.560;13.566;2023-09-19T15:46:23;100142.56;;;21.09;40.62
5679;BME280;2862;52.560;13.566;2023-09-19T15:56:28;100148.19;;;21.21;41.04
5679;BME280;2862;52.560;13.566;2023-09-19T16:06:32;100155.53;;;21.07;41.04
5679;BME280;2862;52.560;13.566;2023-09-19T16:16:35;100155.34;;;20.89;42.08
5679;BME280;2862;52.560;13.566;2023-09-19T16:26:42;100159.50;;;20.78;42.98
5679;BME280;2862;52.560;13.566;2023-09-19T16:36:46;100163.06;;;20.65;43.21
5679;BME280;2862;52.560;13.566;2023-09-19T16:46:51;100162.56;;;20.42;43.85
5679;BME280;2862;52.560;13.566;2023-09-19T16:56:54;100165.22;;;20.22;44.42
5679;BME280;2862;52.560;13.566;2023-09-19T17:06:58;100157.19;;;19.94;45.40
5679;BME280;2862;52.560;13.566;2023-09-19T17:17:02;100165.88;;;19.76;45.60
5679;BME280;2862;52.560;13.566;2023-09-19T17:27:06;100151.81;;;19.59;45.78
5679;BME280;2862;52.560;13.566;2023-09-19T17:37:09;100173.03;;;19.56;46.02
5679;BME280;2862;52.560;13.566;2023-09-19T17:47:13;100184.69;;;19.50;46.66
5679;BME280;2862;52.560;13.566;2023-09-19T17:57:19;100204.59;;;19.35;46.84
5679;BME280;2862;52.560;13.566;2023-09-19T18:07:24;100196.81;;;19.26;47.44
5679;BME280;2862;52.560;13.566;2023-09-19T18:17:27;100215.44;;;19.07;47.28
5679;BME280;2862;52.560;13.566;2023-09-19T18:27:31;100207.88;;;19.03;46.88
5679;BME280;2862;52.560;13.566;2023-09-19T18:37:34;100225.59;;;18.99;47.06
5679;BME280;2862;52.560;13.566;2023-09-19T18:47:39;100232.34;;;18.88;47.65
5679;BME280;2862;52.560;13.566;2023-09-19T18:57:42;100233.91;;;18.76;47.88
5679;BME280;2862;52.560;13.566;2023-09-19T19:07:46;100240.72;;;18.72;48.26
5679;BME280;2862;52.560;13.566;2023-09-19T19:17:50;100228.03;;;18.57;48.82
5679;BME280;2862;52.560;13.566;2023-09-19T19:27:54;100246.34;;;18.55;49.23
5679;BME280;2862;52.560;13.566;2023-09-19T19:37:57;100239.84;;;18.50;49.80
5679;BME280;2862;52.560;13.566;2023-09-19T19:48:03;100246.09;;;18.50;49.70
5679;BME280;2862;52.560;13.566;2023-09-19T19:58:06;100245.94;;;18.37;50.58
5679;BME280;2862;52.560;13.566;2023-09-19T20:08:11;100245.75;;;18.39;50.64
5679;BME280;2862;52.560;13.566;2023-09-19T20:18:15;100249.41;;;18.31;51.25
5679;BME280;2862;52.560;13.566;2023-09-19T20:28:19;100242.31;;;18.30;51.72
5679;BME280;2862;52.560;13.566;2023-09-19T20:38:22;100244.00;;;18.31;51.79
5679;BME280;2862;52.560;13.566;2023-09-19T20:48:26;100239.34;;;18.25;52.22
5679;BME280;2862;52.560;13.566;2023-09-19T20:58:29;100237.56;;;18.17;52.39
5679;BME280;2862;52.560;13.566;2023-09-19T21:08:35;100227.34;;;18.13;52.79
5679;BME280;2862;52.560;13.566;2023-09-19T21:18:38;100237.19;;;18.05;53.02
5679;BME280;2862;52.560;13.566;2023-09-19T21:28:45;100248.41;;;18.02;53.07
5679;BME280;2862;52.560;13.566;2023-09-19T21:38:50;100236.94;;;17.86;53.72
5679;BME280;2862;52.560;13.566;2023-09-19T21:48:54;100227.91;;;17.78;53.85
5679;BME280;2862;52.560;13.566;2023-09-19T21:58:57;100220.22;;;17.67;54.44
5679;BME280;2862;52.560;13.566;2023-09-19T22:09:02;100214.44;;;17.56;54.49
5679;BME280;2862;52.560;13.566;2023-09-19T22:19:05;100205.31;;;17.57;54.80
5679;BME280;2862;52.560;13.566;2023-09-19T22:29:11;100203.63;;;17.56;54.92
5679;BME280;2862;52.560;13.566;2023-09-19T22:39:15;100207.91;;;17.50;54.81
5679;BME280;2862;52.560;13.566;2023-09-19T22:49:23;100211.16;;;17.45;55.71
5679;BME280;2862;52.560;13.566;2023-09-19T22:59:28;100213.75;;;17.24;56.73
5679;BME280;2862;52.560;13.566;2023-09-19T23:09:33;100208.31;;;17.09;57.16
5679;BME280;2862;52.560;13.566;2023-09-19T23:19:38;100212.75;;;17.02;58.11
5679;BME280;2862;52.560;13.566;2023-09-19T23:29:43;100202.03;;;16.94;58.47
5679;BME280;2862;52.560;13.566;2023-09-19T23:39:46;100206.41;;;16.95;58.04
5679;BME280;2862;52.560;13.566;2023-09-19T23:49:52;100208.22;;;16.80;59.00
5679;BME280;2862;52.560;13.566;2023-09-19T23:59:56;100202.88;;;16.71;59.30
